createdAt,value
2018-05-13T00:00:25.386Z,0.00
2018-05-13T00:01:25.379Z,0.00
2018-05-13T00:02:25.357Z,0.00
2018-05-13T00:03:25.343Z,0.00
2018-05-13T00:04:25.327Z,0.00
2018-05-13T00:05:25.312Z,0.00
2018-05-13T00:06:25.296Z,0.00
2018-05-13T00:07:25.282Z,0.00
2018-05-13T00:08:25.270Z,0.00
2018-05-13T00:09:25.285Z,0.00
2018-05-13T00:10:25.238Z,0.00
2018-05-13T00:11:25.222Z,0.00
2018-05-13T00:12:25.206Z,0.00
2018-05-13T00:13:25.191Z,0.00
2018-05-13T00:14:25.175Z,0.00
2018-05-13T00:15:25.161Z,0.00
2018-05-13T00:16:25.147Z,0.00
2018-05-13T00:17:25.132Z,0.00
2018-05-13T00:18:25.117Z,0.00
2018-05-13T00:19:25.124Z,0.00
2018-05-13T00:20:25.090Z,0.00
2018-05-13T00:21:25.071Z,0.00
2018-05-13T00:22:25.054Z,0.00
2018-05-13T00:23:25.041Z,0.00
2018-05-13T00:24:25.026Z,0.00
2018-05-13T00:25:25.010Z,0.00
2018-05-13T00:26:24.995Z,0.00
2018-05-13T00:27:24.980Z,0.00
2018-05-13T00:28:24.965Z,0.00
2018-05-13T00:29:24.948Z,0.00
2018-05-13T00:30:24.942Z,0.00
2018-05-13T00:31:24.921Z,0.00
2018-05-13T00:32:24.923Z,0.00
2018-05-13T00:33:24.913Z,0.00
2018-05-13T00:34:24.873Z,0.00
2018-05-13T00:35:24.859Z,0.00
2018-05-13T00:36:24.844Z,0.00
2018-05-13T00:37:24.828Z,0.00
2018-05-13T00:38:24.812Z,0.00
2018-05-13T00:39:24.798Z,0.00
2018-05-13T00:40:24.783Z,0.00
2018-05-13T00:41:24.767Z,0.00
2018-05-13T00:42:24.750Z,0.00
2018-05-13T00:43:24.738Z,0.00
2018-05-13T00:44:24.724Z,0.00
2018-05-13T00:45:24.704Z,0.00
2018-05-13T00:46:24.694Z,0.00
2018-05-13T00:47:24.675Z,0.00
2018-05-13T00:48:24.660Z,0.00
2018-05-13T00:49:24.645Z,0.00
2018-05-13T00:50:24.630Z,0.00
2018-05-13T00:51:24.613Z,0.00
2018-05-13T00:52:24.597Z,0.00
2018-05-13T00:53:24.584Z,0.00
2018-05-13T00:54:24.567Z,0.00
2018-05-13T00:55:24.552Z,0.00
2018-05-13T00:56:24.536Z,0.00
2018-05-13T00:57:24.525Z,0.00
2018-05-13T00:58:24.506Z,0.00
2018-05-13T00:59:24.491Z,0.00
2018-05-13T01:00:24.476Z,0.00
2018-05-13T01:01:24.461Z,0.00
2018-05-13T01:02:24.445Z,0.00
2018-05-13T01:03:24.431Z,0.00
2018-05-13T01:04:24.419Z,0.00
2018-05-13T01:05:24.401Z,0.00
2018-05-13T01:06:24.384Z,0.00
2018-05-13T01:07:24.368Z,0.00
2018-05-13T01:08:24.352Z,0.00
2018-05-13T01:09:24.338Z,0.00
2018-05-13T01:10:24.321Z,0.00
2018-05-13T01:11:24.306Z,0.00
2018-05-13T01:12:24.290Z,0.00
2018-05-13T01:13:24.275Z,0.00
2018-05-13T01:14:24.260Z,0.00
2018-05-13T01:15:24.253Z,0.00
2018-05-13T01:16:24.229Z,0.00
2018-05-13T01:17:24.216Z,0.00
2018-05-13T01:18:24.197Z,0.00
2018-05-13T01:19:24.183Z,0.00
2018-05-13T01:20:24.167Z,0.00
2018-05-13T01:21:24.153Z,0.00
2018-05-13T01:22:24.136Z,0.00
2018-05-13T01:23:24.126Z,0.00
2018-05-13T01:24:24.106Z,0.00
2018-05-13T01:25:24.093Z,0.00
2018-05-13T01:26:24.076Z,0.00
2018-05-13T01:27:24.061Z,0.00
2018-05-13T01:28:24.047Z,0.00
2018-05-13T01:29:24.038Z,0.00
2018-05-13T01:30:24.014Z,0.00
2018-05-13T01:31:23.997Z,0.00
2018-05-13T01:32:23.982Z,0.00
2018-05-13T01:33:23.967Z,0.00
2018-05-13T01:34:23.950Z,0.00
2018-05-13T01:35:23.947Z,0.00
2018-05-13T01:36:23.925Z,0.00
2018-05-13T01:37:23.926Z,0.00
2018-05-13T01:38:23.889Z,0.00
2018-05-13T01:39:23.873Z,0.00
2018-05-13T01:40:23.860Z,0.00
2018-05-13T01:41:23.843Z,0.00
2018-05-13T01:42:23.834Z,0.00
2018-05-13T01:43:23.810Z,0.00
2018-05-13T01:44:23.798Z,0.00
2018-05-13T01:45:23.781Z,0.00
2018-05-13T01:46:23.766Z,0.00
2018-05-13T01:47:23.751Z,0.00
2018-05-13T01:48:23.733Z,0.00
2018-05-13T01:49:23.724Z,0.00
2018-05-13T01:50:23.702Z,0.00
2018-05-13T01:51:23.689Z,0.00
2018-05-13T01:52:23.672Z,0.00
2018-05-13T01:53:23.656Z,0.00
2018-05-13T01:54:23.640Z,0.00
2018-05-13T01:55:23.625Z,0.00
2018-05-13T01:56:23.610Z,0.00
2018-05-13T01:57:23.595Z,0.00
2018-05-13T01:58:23.581Z,0.00
2018-05-13T01:59:23.563Z,0.00
2018-05-13T02:00:23.547Z,0.00
2018-05-13T02:01:23.532Z,0.00
2018-05-13T02:02:23.517Z,0.00
2018-05-13T02:03:23.502Z,0.00
2018-05-13T02:04:23.484Z,0.00
2018-05-13T02:05:23.475Z,0.00
2018-05-13T02:06:23.468Z,0.00
2018-05-13T02:07:23.468Z,0.00
2018-05-13T02:08:23.436Z,0.00
2018-05-13T02:09:24.306Z,0.00
2018-05-13T02:10:23.421Z,0.00
2018-05-13T02:11:23.413Z,0.00
2018-05-13T02:12:23.406Z,0.00
2018-05-13T02:13:23.409Z,0.00
2018-05-13T02:14:23.359Z,0.00
2018-05-13T02:15:23.326Z,0.00
2018-05-13T02:16:23.308Z,0.00
2018-05-13T02:17:23.289Z,0.00
2018-05-13T02:18:23.301Z,0.00
2018-05-13T02:19:23.278Z,0.00
2018-05-13T02:20:23.237Z,0.00
2018-05-13T02:21:23.221Z,0.00
2018-05-13T02:22:23.209Z,0.00
2018-05-13T02:23:23.190Z,0.00
2018-05-13T02:24:23.174Z,0.00
2018-05-13T02:25:23.176Z,0.00
2018-05-13T02:26:23.144Z,0.00
2018-05-13T02:27:23.127Z,0.00
2018-05-13T02:28:23.113Z,0.00
2018-05-13T02:29:23.096Z,0.00
2018-05-13T02:30:23.080Z,0.00
2018-05-13T02:31:23.068Z,0.00
2018-05-13T02:32:23.050Z,0.00
2018-05-13T02:33:23.037Z,0.00
2018-05-13T02:34:23.019Z,0.00
2018-05-13T02:35:23.003Z,0.00
2018-05-13T02:36:22.989Z,0.00
2018-05-13T02:37:22.972Z,0.00
2018-05-13T02:38:22.956Z,0.00
2018-05-13T02:39:22.944Z,0.00
2018-05-13T02:40:22.947Z,0.00
2018-05-13T02:41:22.909Z,0.00
2018-05-13T02:42:22.893Z,0.00
2018-05-13T02:43:22.879Z,0.00
2018-05-13T02:44:22.926Z,0.00
2018-05-13T02:45:22.848Z,0.00
2018-05-13T02:46:22.842Z,0.00
2018-05-13T02:47:22.816Z,0.00
2018-05-13T02:48:22.800Z,0.00
2018-05-13T02:49:22.787Z,0.00
2018-05-13T02:50:22.769Z,0.00
2018-05-13T02:51:22.754Z,0.00
2018-05-13T02:52:22.738Z,0.00
2018-05-13T02:53:22.721Z,0.00
2018-05-13T02:54:22.708Z,0.00
2018-05-13T02:55:22.694Z,0.00
2018-05-13T02:56:22.679Z,0.00
2018-05-13T02:57:22.664Z,0.00
2018-05-13T02:58:22.645Z,0.00
2018-05-13T02:59:22.629Z,0.00
2018-05-13T03:00:22.612Z,0.00
2018-05-13T03:01:22.601Z,0.00
2018-05-13T03:02:22.585Z,0.00
2018-05-13T03:03:22.569Z,0.00
2018-05-13T03:04:22.551Z,0.00
2018-05-13T03:05:22.536Z,0.00
2018-05-13T03:06:22.522Z,0.00
2018-05-13T03:07:22.506Z,0.00
2018-05-13T03:08:22.489Z,0.00
2018-05-13T03:09:22.473Z,0.00
2018-05-13T03:10:22.457Z,0.00
2018-05-13T03:11:22.450Z,0.00
2018-05-13T03:12:22.428Z,0.00
2018-05-13T03:13:22.411Z,0.00
2018-05-13T03:14:22.393Z,0.00
2018-05-13T03:15:22.379Z,0.00
2018-05-13T03:16:22.364Z,0.00
2018-05-13T03:17:22.348Z,0.00
2018-05-13T03:18:22.330Z,4.00
2018-05-13T03:19:22.321Z,0.00
2018-05-13T03:20:22.319Z,0.00
2018-05-13T03:21:22.285Z,0.00
2018-05-13T03:22:22.280Z,4.00
2018-05-13T03:23:22.254Z,4.00
2018-05-13T03:24:22.240Z,0.00
2018-05-13T03:25:22.222Z,0.00
2018-05-13T03:26:22.207Z,0.00
2018-05-13T03:27:22.192Z,0.00
2018-05-13T03:28:22.183Z,0.00
2018-05-13T03:29:22.255Z,0.00
2018-05-13T03:30:22.146Z,4.00
2018-05-13T03:31:22.129Z,0.00
2018-05-13T03:32:22.114Z,0.00
2018-05-13T03:33:22.101Z,0.00
2018-05-13T03:34:22.081Z,0.00
2018-05-13T03:35:22.064Z,0.00
2018-05-13T03:36:22.052Z,4.00
2018-05-13T03:37:22.037Z,4.00
2018-05-13T03:38:22.021Z,4.00
2018-05-13T03:39:22.003Z,4.00
2018-05-13T03:40:21.990Z,4.00
2018-05-13T03:41:21.974Z,4.00
2018-05-13T03:42:21.958Z,4.00
2018-05-13T03:43:21.969Z,4.00
2018-05-13T03:44:21.925Z,8.00
2018-05-13T03:45:21.914Z,4.00
2018-05-13T03:46:21.893Z,4.00
2018-05-13T03:47:21.880Z,4.00
2018-05-13T03:48:21.863Z,4.00
2018-05-13T03:49:21.848Z,8.00
2018-05-13T03:50:21.832Z,4.00
2018-05-13T03:51:21.819Z,8.00
2018-05-13T03:52:21.804Z,8.00
2018-05-13T03:53:21.788Z,8.00
2018-05-13T03:54:21.772Z,12.00
2018-05-13T03:55:21.754Z,8.00
2018-05-13T03:56:21.739Z,12.00
2018-05-13T03:57:21.736Z,16.00
2018-05-13T03:58:21.710Z,12.00
2018-05-13T03:59:21.694Z,16.00
2018-05-13T04:00:21.679Z,16.00
2018-05-13T04:01:21.665Z,12.00
2018-05-13T04:02:21.647Z,16.00
2018-05-13T04:03:21.650Z,16.00
2018-05-13T04:04:21.616Z,16.00
2018-05-13T04:05:21.617Z,16.00
2018-05-13T04:06:21.585Z,20.00
2018-05-13T04:07:21.635Z,20.00
2018-05-13T04:08:21.554Z,20.00
2018-05-13T04:09:21.537Z,20.00
2018-05-13T04:10:21.521Z,20.00
2018-05-13T04:11:21.506Z,20.00
2018-05-13T04:12:21.504Z,20.00
2018-05-13T04:13:21.476Z,20.00
2018-05-13T04:14:21.458Z,20.00
2018-05-13T04:15:21.446Z,24.00
2018-05-13T04:16:21.429Z,20.00
2018-05-13T04:17:21.413Z,24.00
2018-05-13T04:18:21.402Z,24.00
2018-05-13T04:19:21.392Z,24.00
2018-05-13T04:20:21.367Z,20.00
2018-05-13T04:21:21.352Z,20.00
2018-05-13T04:22:21.344Z,20.00
2018-05-13T04:23:21.322Z,24.00
2018-05-13T04:24:21.304Z,24.00
2018-05-13T04:25:21.294Z,24.00
2018-05-13T04:26:21.276Z,24.00
2018-05-13T04:27:21.261Z,24.00
2018-05-13T04:28:21.243Z,24.00
2018-05-13T04:29:21.226Z,24.00
2018-05-13T04:30:21.210Z,24.00
2018-05-13T04:31:21.195Z,24.00
2018-05-13T04:32:21.180Z,24.00
2018-05-13T04:33:21.165Z,28.00
2018-05-13T04:34:21.149Z,28.00
2018-05-13T04:35:21.142Z,32.00
2018-05-13T04:36:21.118Z,36.00
2018-05-13T04:37:21.103Z,40.00
2018-05-13T04:38:21.087Z,44.00
2018-05-13T04:39:21.071Z,52.00
2018-05-13T04:40:21.055Z,56.00
2018-05-13T04:41:21.042Z,60.00
2018-05-13T04:42:21.023Z,64.00
2018-05-13T04:43:21.020Z,68.00
2018-05-13T04:44:20.994Z,80.00
2018-05-13T04:45:20.977Z,104.00
2018-05-13T04:46:20.967Z,120.00
2018-05-13T04:47:20.946Z,136.00
2018-05-13T04:48:20.932Z,148.00
2018-05-13T04:49:20.917Z,164.00
2018-05-13T04:50:20.901Z,164.00
2018-05-13T04:51:20.883Z,168.00
2018-05-13T04:52:20.869Z,180.00
2018-05-13T04:53:20.854Z,192.00
2018-05-13T04:54:20.838Z,224.00
2018-05-13T04:55:20.822Z,240.00
2018-05-13T04:56:20.808Z,260.00
2018-05-13T04:57:20.792Z,288.00
2018-05-13T04:58:20.775Z,312.00
2018-05-13T04:59:20.820Z,352.00
2018-05-13T05:00:20.746Z,396.00
2018-05-13T05:01:20.729Z,436.00
2018-05-13T05:02:20.712Z,496.00
2018-05-13T05:03:20.698Z,572.00
2018-05-13T05:04:20.682Z,596.00
2018-05-13T05:05:20.679Z,596.00
2018-05-13T05:06:20.651Z,596.00
2018-05-13T05:07:20.644Z,592.00
2018-05-13T05:08:20.619Z,600.00
2018-05-13T05:09:20.606Z,636.00
2018-05-13T05:10:20.588Z,640.00
2018-05-13T05:11:20.572Z,612.00
2018-05-13T05:12:20.558Z,600.00
2018-05-13T05:13:20.547Z,604.00
2018-05-13T05:14:20.527Z,612.00
2018-05-13T05:15:20.546Z,596.00
2018-05-13T05:16:20.495Z,572.00
2018-05-13T05:17:20.480Z,552.00
2018-05-13T05:18:20.463Z,548.00
2018-05-13T05:19:20.450Z,560.00
2018-05-13T05:20:20.434Z,580.00
2018-05-13T05:21:20.429Z,600.00
2018-05-13T05:22:20.401Z,596.00
2018-05-13T05:23:20.386Z,584.00
2018-05-13T05:24:20.371Z,568.00
2018-05-13T05:25:20.356Z,544.00
2018-05-13T05:26:20.340Z,536.00
2018-05-13T05:27:20.326Z,552.00
2018-05-13T05:28:20.309Z,580.00
2018-05-13T05:29:20.294Z,580.00
2018-05-13T05:30:20.278Z,592.00
2018-05-13T05:31:20.266Z,604.00
2018-05-13T05:32:20.249Z,620.00
2018-05-13T05:33:20.232Z,640.00
2018-05-13T05:34:20.218Z,660.00
2018-05-13T05:35:20.269Z,656.00
2018-05-13T05:36:20.187Z,652.00
2018-05-13T05:37:20.175Z,648.00
2018-05-13T05:38:20.156Z,672.00
2018-05-13T05:39:20.141Z,716.00
2018-05-13T05:40:20.124Z,752.00
2018-05-13T05:41:20.112Z,796.00
2018-05-13T05:42:20.095Z,804.00
2018-05-13T05:43:20.081Z,800.00
2018-05-13T05:44:20.062Z,804.00
2018-05-13T05:45:20.051Z,820.00
2018-05-13T05:46:20.106Z,840.00
2018-05-13T05:47:20.069Z,856.00
2018-05-13T05:48:20.086Z,892.00
2018-05-13T05:49:20.011Z,904.00
2018-05-13T05:50:19.973Z,900.00
2018-05-13T05:51:19.963Z,892.00
2018-05-13T05:52:19.948Z,892.00
2018-05-13T05:53:19.984Z,908.00
2018-05-13T05:54:19.935Z,944.00
2018-05-13T05:55:19.908Z,940.00
2018-05-13T05:56:19.925Z,932.00
2018-05-13T05:57:19.868Z,924.00
2018-05-13T05:58:19.851Z,920.00
2018-05-13T05:59:19.872Z,936.00
2018-05-13T06:00:19.837Z,948.00
2018-05-13T06:01:19.807Z,948.00
2018-05-13T06:02:19.791Z,952.00
2018-05-13T06:03:19.888Z,980.00
2018-05-13T06:04:19.763Z,1020.00
2018-05-13T06:05:19.747Z,1064.00
2018-05-13T06:06:19.776Z,1104.00
2018-05-13T06:07:19.716Z,1160.00
2018-05-13T06:08:19.705Z,1176.00
2018-05-13T06:09:19.688Z,1176.00
2018-05-13T06:10:19.671Z,1184.00
2018-05-13T06:11:19.660Z,1200.00
2018-05-13T06:12:19.652Z,1224.00
2018-05-13T06:13:19.628Z,1244.00
2018-05-13T06:14:19.618Z,1272.00
2018-05-13T06:15:19.597Z,1312.00
2018-05-13T06:16:19.587Z,1328.00
2018-05-13T06:17:19.569Z,1340.00
2018-05-13T06:18:19.553Z,1348.00
2018-05-13T06:19:19.547Z,1332.00
2018-05-13T06:20:19.582Z,1308.00
2018-05-13T06:21:20.417Z,1304.00
2018-05-13T06:22:19.493Z,1308.00
2018-05-13T06:23:19.477Z,1312.00
2018-05-13T06:24:19.465Z,1296.00
2018-05-13T06:25:19.555Z,1280.00
2018-05-13T06:26:19.457Z,1280.00
2018-05-13T06:27:19.479Z,1264.00
2018-05-13T06:28:19.408Z,1224.00
2018-05-13T06:29:19.405Z,1236.00
2018-05-13T06:30:19.376Z,1248.00
2018-05-13T06:31:19.363Z,1244.00
2018-05-13T06:32:19.390Z,1212.00
2018-05-13T06:33:19.334Z,1160.00
2018-05-13T06:34:19.372Z,1152.00
2018-05-13T06:35:19.304Z,1184.00
2018-05-13T06:36:19.288Z,1220.00
2018-05-13T06:37:19.276Z,1232.00
2018-05-13T06:38:19.259Z,1192.00
2018-05-13T06:39:19.268Z,1144.00
2018-05-13T06:40:19.230Z,1120.00
2018-05-13T06:41:19.214Z,1148.00
2018-05-13T06:42:19.200Z,1192.00
2018-05-13T06:43:19.227Z,1196.00
2018-05-13T06:44:19.171Z,1140.00
2018-05-13T06:45:19.186Z,1044.00
2018-05-13T06:46:19.146Z,1000.00
2018-05-13T06:47:19.128Z,972.00
2018-05-13T06:48:19.114Z,984.00
2018-05-13T06:49:19.152Z,1000.00
2018-05-13T06:50:19.092Z,1004.00
2018-05-13T06:51:19.236Z,988.00
2018-05-13T06:52:19.057Z,984.00
2018-05-13T06:53:19.057Z,964.00
2018-05-13T06:54:19.046Z,980.00
2018-05-13T06:55:19.016Z,968.00
2018-05-13T06:56:18.997Z,928.00
2018-05-13T06:57:18.990Z,960.00
2018-05-13T06:58:18.977Z,940.00
2018-05-13T06:59:19.937Z,940.00
2018-05-13T07:00:18.991Z,936.00
2018-05-13T07:01:18.928Z,936.00
2018-05-13T07:02:18.912Z,932.00
2018-05-13T07:03:18.950Z,932.00
2018-05-13T07:04:18.938Z,932.00
2018-05-13T07:05:18.875Z,940.00
2018-05-13T07:06:18.865Z,956.00
2018-05-13T07:07:18.851Z,976.00
2018-05-13T07:08:18.825Z,1000.00
2018-05-13T07:09:18.838Z,1020.00
2018-05-13T07:10:18.817Z,1036.00
2018-05-13T07:11:18.795Z,1052.00
2018-05-13T07:12:18.819Z,1060.00
2018-05-13T07:13:19.387Z,1068.00
2018-05-13T07:14:18.741Z,1072.00
2018-05-13T07:15:18.726Z,1064.00
2018-05-13T07:16:18.711Z,1040.00
2018-05-13T07:17:18.698Z,1036.00
2018-05-13T07:18:18.695Z,1020.00
2018-05-13T07:19:19.428Z,1016.00
2018-05-13T07:20:18.656Z,1024.00
2018-05-13T07:21:18.643Z,1028.00
2018-05-13T07:22:18.625Z,1028.00
2018-05-13T07:23:18.612Z,1028.00
2018-05-13T07:24:18.598Z,1032.00
2018-05-13T07:25:18.590Z,1044.00
2018-05-13T07:26:18.570Z,1044.00
2018-05-13T07:27:18.571Z,1044.00
2018-05-13T07:28:18.543Z,1044.00
2018-05-13T07:29:18.586Z,1048.00
2018-05-13T07:30:18.512Z,1052.00
2018-05-13T07:31:18.506Z,1072.00
2018-05-13T07:32:18.489Z,1080.00
2018-05-13T07:33:18.474Z,1076.00
2018-05-13T07:34:18.462Z,1092.00
2018-05-13T07:35:18.444Z,1068.00
2018-05-13T07:36:18.427Z,1072.00
2018-05-13T07:37:18.414Z,1068.00
2018-05-13T07:38:18.398Z,1108.00
2018-05-13T07:39:18.395Z,1112.00
2018-05-13T07:40:18.373Z,1112.00
2018-05-13T07:41:18.356Z,1092.00
2018-05-13T07:42:18.374Z,1068.00
2018-05-13T07:43:18.423Z,1068.00
2018-05-13T07:44:18.336Z,1092.00
2018-05-13T07:45:18.332Z,1088.00
2018-05-13T07:46:18.355Z,1084.00
2018-05-13T07:47:18.305Z,1068.00
2018-05-13T07:48:18.301Z,1044.00
2018-05-13T07:49:18.275Z,1012.00
2018-05-13T07:50:18.238Z,1012.00
2018-05-13T07:51:18.220Z,988.00
2018-05-13T07:52:18.204Z,996.00
2018-05-13T07:53:18.222Z,1012.00
2018-05-13T07:54:18.197Z,1044.00
2018-05-13T07:55:18.197Z,1056.00
2018-05-13T07:56:18.163Z,1080.00
2018-05-13T07:57:18.161Z,1084.00
2018-05-13T07:58:18.172Z,1140.00
2018-05-13T07:59:18.110Z,1180.00
2018-05-13T08:00:18.305Z,1208.00
2018-05-13T08:01:18.100Z,1200.00
2018-05-13T08:02:18.061Z,1248.00
2018-05-13T08:03:18.102Z,1268.00
2018-05-13T08:04:18.045Z,1276.00
2018-05-13T08:05:18.044Z,1280.00
2018-05-13T08:06:18.107Z,1312.00
2018-05-13T08:07:18.019Z,1316.00
2018-05-13T08:08:18.022Z,1312.00
2018-05-13T08:09:17.976Z,1300.00
2018-05-13T08:10:17.963Z,1292.00
2018-05-13T08:11:17.985Z,1272.00
2018-05-13T08:12:17.944Z,1208.00
2018-05-13T08:13:17.928Z,1296.00
2018-05-13T08:14:17.903Z,1324.00
2018-05-13T08:15:17.882Z,1436.00
2018-05-13T08:16:17.895Z,1676.00
2018-05-13T08:17:17.883Z,1732.00
2018-05-13T08:18:17.851Z,1972.00
2018-05-13T08:19:17.862Z,1852.00
2018-05-13T08:20:18.041Z,1744.00
2018-05-13T08:21:17.846Z,1728.00
2018-05-13T08:22:17.786Z,1612.00
2018-05-13T08:23:17.777Z,1552.00
2018-05-13T08:24:17.749Z,1516.00
2018-05-13T08:25:17.733Z,1712.00
2018-05-13T08:26:17.727Z,1636.00
2018-05-13T08:27:17.721Z,1548.00
2018-05-13T08:28:17.703Z,1532.00
2018-05-13T08:29:17.678Z,1532.00
2018-05-13T08:30:17.663Z,1524.00
2018-05-13T08:31:17.657Z,1476.00
2018-05-13T08:32:17.672Z,1464.00
2018-05-13T08:33:17.637Z,1464.00
2018-05-13T08:34:17.613Z,1504.00
2018-05-13T08:35:17.629Z,1544.00
2018-05-13T08:36:17.609Z,1564.00
2018-05-13T08:37:17.580Z,1584.00
2018-05-13T08:38:17.580Z,1596.00
2018-05-13T08:39:17.558Z,1572.00
2018-05-13T08:40:17.541Z,1544.00
2018-05-13T08:41:17.513Z,1568.00
2018-05-13T08:42:17.498Z,1560.00
2018-05-13T08:43:17.514Z,1572.00
2018-05-13T08:44:17.477Z,1576.00
2018-05-13T08:45:17.460Z,1636.00
2018-05-13T08:46:17.489Z,1652.00
2018-05-13T08:47:17.463Z,1640.00
2018-05-13T08:48:17.420Z,1664.00
2018-05-13T08:49:17.414Z,1668.00
2018-05-13T08:50:17.404Z,1708.00
2018-05-13T08:51:17.405Z,1728.00
2018-05-13T08:52:17.383Z,1784.00
2018-05-13T08:53:17.371Z,1852.00
2018-05-13T08:54:17.366Z,1828.00
2018-05-13T08:55:17.332Z,1812.00
2018-05-13T08:56:17.308Z,1824.00
2018-05-13T08:57:17.331Z,1780.00
2018-05-13T08:58:17.299Z,1788.00
2018-05-13T08:59:17.281Z,1796.00
2018-05-13T09:00:17.258Z,1756.00
2018-05-13T09:01:17.240Z,1732.00
2018-05-13T09:02:17.268Z,1824.00
2018-05-13T09:03:17.256Z,1828.00
2018-05-13T09:04:17.206Z,1840.00
2018-05-13T09:05:17.229Z,1728.00
2018-05-13T09:06:18.940Z,1868.00
2018-05-13T09:07:17.291Z,1900.00
2018-05-13T09:08:17.145Z,1924.00
2018-05-13T09:09:17.127Z,1996.00
2018-05-13T09:10:17.169Z,2052.00
2018-05-13T09:11:17.987Z,2092.00
2018-05-13T09:12:17.154Z,2112.00
2018-05-13T09:13:17.130Z,2140.00
2018-05-13T09:14:17.060Z,2200.00
2018-05-13T09:15:17.081Z,2240.00
2018-05-13T09:16:17.078Z,2260.00
2018-05-13T09:17:17.071Z,2324.00
2018-05-13T09:18:17.009Z,2364.00
2018-05-13T09:19:17.000Z,2388.00
2018-05-13T09:20:17.022Z,2408.00
2018-05-13T09:21:16.967Z,2420.00
2018-05-13T09:22:16.952Z,2420.00
2018-05-13T09:23:16.940Z,2392.00
2018-05-13T09:24:16.989Z,2292.00
2018-05-13T09:25:16.922Z,2316.00
2018-05-13T09:26:16.902Z,2308.00
2018-05-13T09:27:16.886Z,2332.00
2018-05-13T09:28:16.873Z,2364.00
2018-05-13T09:29:16.870Z,2372.00
2018-05-13T09:30:16.847Z,2360.00
2018-05-13T09:31:16.839Z,2448.00
2018-05-13T09:32:16.835Z,2508.00
2018-05-13T09:33:16.817Z,2620.00
2018-05-13T09:34:16.859Z,2768.00
2018-05-13T09:35:16.782Z,2840.00
2018-05-13T09:36:16.774Z,2744.00
2018-05-13T09:37:16.761Z,2336.00
2018-05-13T09:38:16.751Z,2308.00
2018-05-13T09:39:16.746Z,2300.00
2018-05-13T09:40:16.726Z,2628.00
2018-05-13T09:41:16.715Z,2680.00
2018-05-13T09:42:16.714Z,2812.00
2018-05-13T09:43:16.684Z,2896.00
2018-05-13T09:44:16.702Z,2972.00
2018-05-13T09:45:16.656Z,2964.00
2018-05-13T09:46:16.649Z,2928.00
2018-05-13T09:47:16.631Z,2904.00
2018-05-13T09:48:16.645Z,2796.00
2018-05-13T09:49:16.611Z,2844.00
2018-05-13T09:50:16.677Z,2880.00
2018-05-13T09:51:16.615Z,2812.00
2018-05-13T09:52:16.570Z,2600.00
2018-05-13T09:53:16.627Z,2920.00
2018-05-13T09:54:17.522Z,3136.00
2018-05-13T09:55:16.532Z,3240.00
2018-05-13T09:56:16.536Z,3456.00
2018-05-13T09:57:16.564Z,3204.00
2018-05-13T09:58:16.517Z,3284.00
2018-05-13T09:59:16.481Z,3400.00
2018-05-13T10:00:16.467Z,3220.00
2018-05-13T10:01:16.474Z,2976.00
2018-05-13T10:02:16.447Z,3268.00
2018-05-13T10:03:16.465Z,3284.00
2018-05-13T10:04:16.438Z,3252.00
2018-05-13T10:05:16.417Z,3224.00
2018-05-13T10:06:16.397Z,3648.00
2018-05-13T10:07:16.385Z,3260.00
2018-05-13T10:08:16.375Z,3396.00
2018-05-13T10:09:16.360Z,3976.00
2018-05-13T10:10:16.348Z,3340.00
2018-05-13T10:11:16.336Z,4208.00
2018-05-13T10:12:16.364Z,5572.00
2018-05-13T10:13:16.316Z,5448.00
2018-05-13T10:14:16.300Z,5196.00
2018-05-13T10:15:16.288Z,6052.00
2018-05-13T10:16:16.279Z,5596.00
2018-05-13T10:17:16.267Z,7004.00
2018-05-13T10:18:16.301Z,8808.00
2018-05-13T10:19:16.337Z,10384.00
2018-05-13T10:20:16.958Z,9988.00
2018-05-13T10:21:17.124Z,11752.00
2018-05-13T10:22:17.418Z,12604.00
2018-05-13T10:23:16.262Z,13824.00
2018-05-13T10:24:16.252Z,14204.00
2018-05-13T10:25:16.266Z,14464.00
2018-05-13T10:26:16.176Z,14656.00
2018-05-13T10:27:16.242Z,14656.00
2018-05-13T10:28:16.276Z,14560.00
2018-05-13T10:29:16.151Z,14624.00
2018-05-13T10:30:16.190Z,14688.00
2018-05-13T10:31:16.187Z,14368.00
2018-05-13T10:32:16.171Z,13580.00
2018-05-13T10:33:17.010Z,14176.00
2018-05-13T10:34:17.016Z,13856.00
2018-05-13T10:35:16.185Z,14208.00
2018-05-13T10:36:16.135Z,13900.00
2018-05-13T10:37:16.096Z,14304.00
2018-05-13T10:38:16.085Z,14432.00
2018-05-13T10:39:17.030Z,14432.00
2018-05-13T10:40:16.173Z,14944.00
2018-05-13T10:41:16.174Z,14816.00
2018-05-13T10:42:16.117Z,14784.00
2018-05-13T10:43:16.091Z,15008.00
2018-05-13T10:44:16.104Z,15168.00
2018-05-13T10:45:16.066Z,15200.00
2018-05-13T10:46:16.060Z,14976.00
2018-05-13T10:47:16.052Z,15488.00
2018-05-13T10:48:16.052Z,15904.00
2018-05-13T10:49:17.150Z,15808.00
2018-05-13T10:50:16.099Z,15744.00
2018-05-13T10:51:16.044Z,15104.00
2018-05-13T10:52:16.043Z,13412.00
2018-05-13T10:53:16.070Z,13452.00
2018-05-13T10:54:16.039Z,15328.00
2018-05-13T10:55:16.068Z,15712.00
2018-05-13T10:56:16.078Z,16128.00
2018-05-13T10:57:16.055Z,16384.00
2018-05-13T10:58:16.032Z,15360.00
2018-05-13T10:59:16.034Z,15968.00
2018-05-13T11:00:16.034Z,15264.00
2018-05-13T11:01:16.037Z,14176.00
2018-05-13T11:02:16.030Z,11768.00
2018-05-13T11:03:16.030Z,11356.00
2018-05-13T11:04:16.032Z,11080.00
2018-05-13T11:05:16.032Z,12676.00
2018-05-13T11:06:16.031Z,13460.00
2018-05-13T11:07:16.029Z,12468.00
2018-05-13T11:08:16.032Z,13596.00
2018-05-13T11:09:16.030Z,13284.00
2018-05-13T11:10:16.267Z,13400.00
2018-05-13T11:11:16.030Z,13576.00
2018-05-13T11:12:16.027Z,14400.00
2018-05-13T11:13:16.030Z,13568.00
2018-05-13T11:14:16.030Z,15296.00
2018-05-13T11:15:16.039Z,15296.00
2018-05-13T11:16:16.026Z,15520.00
2018-05-13T11:17:16.025Z,14048.00
2018-05-13T11:18:16.145Z,12624.00
2018-05-13T11:19:16.067Z,12096.00
2018-05-13T11:20:16.079Z,12712.00
2018-05-13T11:21:16.027Z,12716.00
2018-05-13T11:22:16.021Z,7020.00
2018-05-13T11:23:16.025Z,11012.00
2018-05-13T11:24:16.021Z,11652.00
2018-05-13T11:25:16.020Z,7188.00
2018-05-13T11:26:16.017Z,5580.00
2018-05-13T11:27:16.016Z,4312.00
2018-05-13T11:28:16.016Z,3584.00
2018-05-13T11:29:16.017Z,3388.00
2018-05-13T11:30:16.014Z,3268.00
2018-05-13T11:31:16.012Z,3112.00
2018-05-13T11:32:16.014Z,2868.00
2018-05-13T11:33:16.007Z,2796.00
2018-05-13T11:34:16.005Z,2788.00
2018-05-13T11:35:16.028Z,2796.00
2018-05-13T11:36:16.003Z,2688.00
2018-05-13T11:37:16.007Z,3492.00
2018-05-13T11:38:15.995Z,2400.00
2018-05-13T11:39:16.006Z,1780.00
2018-05-13T11:40:15.986Z,1824.00
2018-05-13T11:41:15.983Z,1692.00
2018-05-13T11:42:15.977Z,1680.00
2018-05-13T11:43:16.026Z,1604.00
2018-05-13T11:44:15.971Z,1948.00
2018-05-13T11:45:15.968Z,1788.00
2018-05-13T11:46:15.957Z,2372.00
2018-05-13T11:47:15.952Z,2512.00
2018-05-13T11:48:15.947Z,2712.00
2018-05-13T11:49:15.945Z,1876.00
2018-05-13T11:50:15.936Z,3592.00
2018-05-13T11:51:15.928Z,5516.00
2018-05-13T11:52:15.925Z,1580.00
2018-05-13T11:53:15.915Z,1412.00
2018-05-13T11:54:15.912Z,1324.00
2018-05-13T11:55:15.901Z,1428.00
2018-05-13T11:56:15.897Z,1848.00
2018-05-13T11:57:15.899Z,6836.00
2018-05-13T11:58:16.328Z,14848.00
2018-05-13T11:59:15.896Z,12996.00
2018-05-13T12:00:15.865Z,11632.00
2018-05-13T12:01:15.857Z,9656.00
2018-05-13T12:02:15.879Z,7928.00
2018-05-13T12:03:15.844Z,7576.00
2018-05-13T12:04:15.836Z,6752.00
2018-05-13T12:05:15.827Z,8460.00
2018-05-13T12:06:15.822Z,11148.00
2018-05-13T12:07:15.819Z,10744.00
2018-05-13T12:08:15.809Z,13024.00
2018-05-13T12:09:15.802Z,14048.00
2018-05-13T12:10:15.793Z,8204.00
2018-05-13T12:11:15.789Z,10812.00
2018-05-13T12:12:15.782Z,8124.00
2018-05-13T12:13:15.775Z,5024.00
2018-05-13T12:14:15.769Z,4848.00
2018-05-13T12:15:15.844Z,5060.00
2018-05-13T12:16:15.756Z,4580.00
2018-05-13T12:17:15.753Z,5128.00
2018-05-13T12:18:15.744Z,12796.00
2018-05-13T12:19:15.738Z,6192.00
2018-05-13T12:20:15.731Z,7304.00
2018-05-13T12:21:15.733Z,10608.00
2018-05-13T12:22:15.719Z,4440.00
2018-05-13T12:23:15.709Z,3148.00
2018-05-13T12:24:15.707Z,2456.00
2018-05-13T12:25:15.696Z,2012.00
2018-05-13T12:26:15.687Z,1756.00
2018-05-13T12:27:15.682Z,1656.00
2018-05-13T12:28:15.673Z,1792.00
2018-05-13T12:29:15.665Z,2432.00
2018-05-13T12:30:15.656Z,4280.00